Terminal Aerodrome Forecast
Issued by NWS

Home | Current Version | Previous Version | Text Only | Print | Product List | Glossary On
Versions: 1 2 3 4 5 6 7 8 9 10 11 12 13 14 15 16 17 18 19 20 21 22
913
FTUS43 KIWX 131723
TAFSBN
TAF
KSBN 131723Z 1318/1418 29012KT 3SM -SHSN SCT015 OVC035
      TEMPO 1318/1322 1SM -SHSN OVC015
     FM132300 29007KT P6SM BKN035
     FM140400 VRB03KT P6SM FEW050 SCT250
     FM141400 13010KT P6SM SCT100 OVC200=

USA.gov is the U.S. government's official web portal to all federal, state and local government web resources and services.